Time;durP1;ratioP1;P1;durP2;ratioP2;P2;SDS_P1;SDS_P2;PMS_P1;PMS_P2;Temp;Humidity;BMP_temperature;BMP_pressure;BME280_temperature;BME280_humidity;BME280_pressure;Samples;Min_cycle;Max_cycle;Signal;HPM_P1;HPM_P2
2021/12/19 00:04:20;;;;;;;;;;;16.40;59.40;;;;;;5101502;28;19908;-72
2021/12/19 00:09:30;;;;;;;;;;;16.40;59.40;;;;;;5101403;28;19919;-71
2021/12/19 00:11:57;;;;;;;;;;;16.40;59.50;;;;;;5082667;28;19908;-71
2021/12/19 00:14:23;;;;;;;;;;;16.50;59.40;;;;;;5083161;28;19900;-71
2021/12/19 00:16:53;;;;;;;;;;;16.40;59.40;;;;;;5101299;28;19908;-71
2021/12/19 00:19:19;;;;;;;;;;;16.40;59.40;;;;;;5101322;28;19916;-72
2021/12/19 00:21:45;;;;;;;;;;;16.40;59.50;;;;;;5101114;28;20032;-69
2021/12/19 00:24:10;;;;;;;;;;;16.40;59.30;;;;;;5101243;28;19979;-71
2021/12/19 00:26:36;;;;;;;;;;;16.40;59.30;;;;;;5101180;28;19912;-72
2021/12/19 00:29:03;;;;;;;;;;;16.40;59.40;;;;;;5082890;28;19915;-71
2021/12/19 00:31:29;;;;;;;;;;;16.40;59.50;;;;;;5100674;28;20200;-71
2021/12/19 00:33:55;;;;;;;;;;;16.40;59.50;;;;;;5100977;28;19908;-71
2021/12/19 00:36:20;;;;;;;;;;;16.40;59.40;;;;;;5100985;28;19947;-71
2021/12/19 00:38:46;;;;;;;;;;;16.40;60.00;;;;;;5100878;28;20201;-71
2021/12/19 00:41:11;;;;;;;;;;;16.40;59.40;;;;;;5100813;28;19915;-71
2021/12/19 00:43:53;;;;;;;;;;;16.40;59.40;;;;;;5100826;28;20100;-72
2021/12/19 00:46:19;;;;;;;;;;;16.40;59.30;;;;;;5100825;28;19914;-70
2021/12/19 00:48:49;;;;;;;;;;;16.40;59.50;;;;;;5100805;28;19908;-71
2021/12/19 00:51:16;;;;;;;;;;;16.40;59.50;;;;;;5100741;28;20242;-69
2021/12/19 00:53:44;;;;;;;;;;;16.40;59.50;;;;;;5100696;28;20231;-70
2021/12/19 00:56:10;;;;;;;;;;;16.40;59.50;;;;;;5100583;28;19908;-71
2021/12/19 00:58:35;;;;;;;;;;;16.40;59.40;;;;;;5100475;28;19936;-70
2021/12/19 01:01:02;;;;;;;;;;;16.40;59.50;;;;;;5100490;28;19908;-71
2021/12/19 01:03:28;;;;;;;;;;;16.40;59.60;;;;;;5100481;28;19900;-70
2021/12/19 01:05:53;;;;;;;;;;;16.40;59.50;;;;;;5100525;28;19939;-71
2021/12/19 01:08:19;;;;;;;;;;;16.40;59.40;;;;;;5100507;28;19908;-71
2021/12/19 01:10:46;;;;;;;;;;;16.40;59.50;;;;;;5100342;28;19961;-70
2021/12/19 01:13:12;;;;;;;;;;;16.40;59.50;;;;;;5100325;28;20116;-71
2021/12/19 01:15:38;;;;;;;;;;;16.40;59.50;;;;;;5100288;28;19900;-71
2021/12/19 01:18:04;;;;;;;;;;;16.40;59.50;;;;;;5100331;28;19979;-71
2021/12/19 01:20:31;;;;;;;;;;;16.40;59.50;;;;;;5100283;28;19954;-70
2021/12/19 01:22:57;;;;;;;;;;;16.40;59.40;;;;;;5100130;28;19914;-71
2021/12/19 01:25:22;;;;;;;;;;;16.40;59.60;;;;;;5099359;28;19907;-71
2021/12/19 01:27:48;;;;;;;;;;;16.40;59.40;;;;;;5082087;28;20022;-71
2021/12/19 01:30:15;;;;;;;;;;;16.40;59.50;;;;;;5100180;28;20227;-71
2021/12/19 01:32:42;;;;;;;;;;;16.40;59.40;;;;;;5100218;28;19908;-71
2021/12/19 01:35:08;;;;;;;;;;;16.40;59.50;;;;;;5100012;28;19908;-72
2021/12/19 01:37:34;;;;;;;;;;;16.40;59.60;;;;;;5100169;28;19985;-71
2021/12/19 01:39:59;;;;;;;;;;;16.40;59.40;;;;;;5081870;28;19969;-71
2021/12/19 01:42:35;;;;;;;;;;;16.40;59.60;;;;;;5099912;28;19938;-72
2021/12/19 01:45:01;;;;;;;;;;;16.40;59.50;;;;;;5100089;28;19915;-71
2021/12/19 01:47:27;;;;;;;;;;;16.40;59.40;;;;;;5099926;28;20196;-71
2021/12/19 01:49:55;;;;;;;;;;;16.40;59.60;;;;;;5100067;28;19900;-71
2021/12/19 01:52:21;;;;;;;;;;;16.40;59.50;;;;;;5099968;28;19962;-71
2021/12/19 01:54:48;;;;;;;;;;;16.40;59.50;;;;;;5099869;28;19908;-72
2021/12/19 01:57:14;;;;;;;;;;;16.40;59.40;;;;;;5099907;28;19958;-71
2021/12/19 01:59:39;;;;;;;;;;;16.40;59.40;;;;;;5099707;28;19920;-71
2021/12/19 02:02:05;;;;;;;;;;;16.40;59.60;;;;;;5099901;28;20274;-70
2021/12/19 02:04:32;;;;;;;;;;;16.40;59.60;;;;;;5099707;28;19950;-70
2021/12/19 02:06:58;;;;;;;;;;;16.40;59.60;;;;;;5099825;28;19907;-71
2021/12/19 02:09:25;;;;;;;;;;;16.40;59.50;;;;;;5099821;28;19908;-71
2021/12/19 02:11:51;;;;;;;;;;;16.40;59.60;;;;;;5099750;28;20132;-70
2021/12/19 02:14:17;;;;;;;;;;;16.40;60.10;;;;;;5099749;28;19977;-71
2021/12/19 02:16:42;;;;;;;;;;;16.40;59.60;;;;;;5099760;28;19961;-70
2021/12/19 02:19:09;;;;;;;;;;;16.40;59.60;;;;;;5099644;28;19915;-71
2021/12/19 02:21:34;;;;;;;;;;;16.40;59.50;;;;;;5099629;28;19912;-71
2021/12/19 02:24:01;;;;;;;;;;;16.40;59.50;;;;;;5099598;28;20103;-70
2021/12/19 02:26:26;;;;;;;;;;;16.40;59.50;;;;;;5099666;28;20116;-71
2021/12/19 02:28:52;;;;;;;;;;;16.40;59.50;;;;;;5099627;28;19912;-70
2021/12/19 02:31:17;;;;;;;;;;;16.40;59.60;;;;;;5099550;28;20290;-72
2021/12/19 02:33:57;;;;;;;;;;;16.40;59.40;;;;;;5099609;28;19983;-71
2021/12/19 02:36:37;;;;;;;;;;;16.40;59.40;;;;;;5101811;28;19907;-71
2021/12/19 02:39:20;;;;;;;;;;;16.40;59.50;;;;;;5103285;28;19907;-70
2021/12/19 02:50:06;;;;;;;;;;;16.40;59.50;;;;;;5103124;28;19915;-71
2021/12/19 02:52:31;;;;;;;;;;;16.40;59.50;;;;;;5102902;28;19900;-70
2021/12/19 02:54:57;;;;;;;;;;;16.40;59.50;;;;;;5102889;28;19950;-72
2021/12/19 02:57:22;;;;;;;;;;;16.40;59.60;;;;;;5102954;28;19937;-71
2021/12/19 02:59:48;;;;;;;;;;;16.40;59.50;;;;;;5102477;28;19920;-70
2021/12/19 03:02:18;;;;;;;;;;;16.40;59.50;;;;;;5102401;28;19977;-71
2021/12/19 03:04:56;;;;;;;;;;;16.40;59.50;;;;;;5102759;28;19904;-70
2021/12/19 03:07:24;;;;;;;;;;;16.40;59.50;;;;;;5102685;28;19924;-71
2021/12/19 03:10:17;;;;;;;;;;;16.40;59.50;;;;;;5102613;28;20254;-71
2021/12/19 03:13:00;;;;;;;;;;;16.40;59.60;;;;;;5102403;28;20234;-72
2021/12/19 03:18:11;;;;;;;;;;;16.40;59.50;;;;;;5102485;28;20348;-71
2021/12/19 03:20:37;;;;;;;;;;;16.40;59.60;;;;;;5102356;28;20096;-71
2021/12/19 03:23:03;;;;;;;;;;;16.40;59.50;;;;;;5102320;28;19982;-71
2021/12/19 03:25:30;;;;;;;;;;;16.40;59.60;;;;;;5102279;28;19907;-71
2021/12/19 03:27:56;;;;;;;;;;;16.40;59.50;;;;;;5084064;28;19908;-71
2021/12/19 03:30:21;;;;;;;;;;;16.40;60.20;;;;;;5102044;28;19900;-71
2021/12/19 03:32:47;;;;;;;;;;;16.40;59.60;;;;;;5102082;28;19914;-72
2021/12/19 03:35:13;;;;;;;;;;;16.40;59.60;;;;;;5102125;28;19961;-71
2021/12/19 03:37:40;;;;;;;;;;;16.40;59.50;;;;;;5102065;28;19975;-71
2021/12/19 03:40:10;;;;;;;;;;;16.40;59.50;;;;;;5083832;28;19908;-71
2021/12/19 03:42:44;;;;;;;;;;;16.40;59.60;;;;;;5083964;28;19991;-70
2021/12/19 03:45:13;;;;;;;;;;;16.40;59.60;;;;;;5101949;28;20213;-71
2021/12/19 03:47:39;;;;;;;;;;;16.40;59.50;;;;;;5100951;28;19957;-71
2021/12/19 03:50:06;;;;;;;;;;;16.40;59.50;;;;;;5101864;28;19912;-71
2021/12/19 03:52:32;;;;;;;;;;;16.40;60.20;;;;;;5101732;28;19908;-70
2021/12/19 03:54:58;;;;;;;;;;;16.40;59.60;;;;;;5101815;28;19923;-71
2021/12/19 03:57:24;;;;;;;;;;;16.40;59.50;;;;;;5101711;28;19955;-71
2021/12/19 03:59:49;;;;;;;;;;;16.40;59.50;;;;;;5101548;28;19908;-71
2021/12/19 04:02:24;;;;;;;;;;;16.40;59.50;;;;;;5101298;28;19985;-71
2021/12/19 04:04:49;;;;;;;;;;;16.40;59.60;;;;;;5101433;28;20146;-70
2021/12/19 04:07:15;;;;;;;;;;;16.40;59.50;;;;;;5083285;28;19908;-70
2021/12/19 04:09:40;;;;;;;;;;;16.40;59.60;;;;;;5101284;28;20215;-71
2021/12/19 04:12:08;;;;;;;;;;;16.40;59.50;;;;;;5101255;28;20223;-71
2021/12/19 04:14:34;;;;;;;;;;;16.40;59.50;;;;;;5101320;28;19915;-70
2021/12/19 04:16:59;;;;;;;;;;;16.40;59.50;;;;;;5101207;28;19907;-71
2021/12/19 04:19:26;;;;;;;;;;;16.40;59.50;;;;;;5101172;28;19908;-70
2021/12/19 04:21:51;;;;;;;;;;;16.40;59.60;;;;;;5101002;28;19904;-70
2021/12/19 04:24:17;;;;;;;;;;;16.40;59.40;;;;;;5101029;28;19975;-71
2021/12/19 04:26:42;;;;;;;;;;;16.40;59.60;;;;;;5100990;28;19908;-70
2021/12/19 04:29:08;;;;;;;;;;;16.40;59.60;;;;;;5100928;28;19966;-71
2021/12/19 04:31:34;;;;;;;;;;;16.40;59.60;;;;;;5100971;28;20138;-69
2021/12/19 04:33:59;;;;;;;;;;;16.40;59.40;;;;;;5100806;28;20329;-70
2021/12/19 04:36:31;;;;;;;;;;;16.40;59.60;;;;;;5100801;28;19966;-70
2021/12/19 04:58:01;;;;;;;;;;;16.40;59.60;;;;;;5100715;28;19908;-71
2021/12/19 05:00:39;;;;;;;;;;;16.40;59.60;;;;;;5100378;28;19915;-71
2021/12/19 05:03:25;;;;;;;;;;;16.40;59.50;;;;;;5100370;28;19920;-71
2021/12/19 05:06:19;;;;;;;;;;;16.40;59.50;;;;;;5100386;28;20208;-71
2021/12/19 05:14:23;;;;;;;;;;;16.40;59.50;;;;;;5100250;28;19906;-71
2021/12/19 05:16:50;;;;;;;;;;;16.40;59.60;;;;;;5100097;28;20488;-70
2021/12/19 05:19:29;;;;;;;;;;;16.40;59.60;;;;;;5100184;28;19908;-71
2021/12/19 05:22:02;;;;;;;;;;;16.40;59.60;;;;;;5099964;28;19912;-71
2021/12/19 05:27:03;;;;;;;;;;;16.40;59.50;;;;;;5100001;28;19907;-70
2021/12/19 05:29:28;;;;;;;;;;;16.40;59.50;;;;;;5099871;28;19900;-70
2021/12/19 05:31:54;;;;;;;;;;;16.40;59.50;;;;;;5099935;28;19931;-72
2021/12/19 05:34:19;;;;;;;;;;;16.40;59.60;;;;;;5099962;28;19908;-70
2021/12/19 05:45:19;;;;;;;;;;;16.40;59.60;;;;;;5099849;28;19915;-72
2021/12/19 05:47:46;;;;;;;;;;;16.30;59.50;;;;;;5081641;28;19914;-71
2021/12/19 05:50:12;;;;;;;;;;;16.40;59.50;;;;;;5099803;28;19907;-71
2021/12/19 05:52:38;;;;;;;;;;;16.40;59.60;;;;;;5099670;28;19904;-71
2021/12/19 05:55:04;;;;;;;;;;;16.40;59.60;;;;;;5081597;28;19943;-71
2021/12/19 05:57:30;;;;;;;;;;;16.40;59.60;;;;;;5099639;28;19989;-71
2021/12/19 05:59:55;;;;;;;;;;;16.30;59.50;;;;;;5099654;28;19908;-71
2021/12/19 06:02:21;;;;;;;;;;;16.40;59.60;;;;;;5099392;28;19927;-71
2021/12/19 06:04:46;;;;;;;;;;;16.30;59.50;;;;;;5099561;28;19983;-71
2021/12/19 06:07:12;;;;;;;;;;;16.40;59.50;;;;;;5099615;28;19953;-71
2021/12/19 06:09:37;;;;;;;;;;;16.40;59.50;;;;;;5099496;28;20096;-71
2021/12/19 06:12:03;;;;;;;;;;;16.40;59.50;;;;;;5103026;28;20128;-71
2021/12/19 06:14:33;;;;;;;;;;;16.40;59.50;;;;;;5103461;28;20327;-72
2021/12/19 06:17:03;;;;;;;;;;;16.40;59.50;;;;;;5103480;28;19904;-71
2021/12/19 06:19:29;;;;;;;;;;;16.40;59.60;;;;;;5103313;28;19915;-71
2021/12/19 06:21:54;;;;;;;;;;;16.40;59.60;;;;;;5103360;28;20315;-72
2021/12/19 06:24:20;;;;;;;;;;;16.30;59.50;;;;;;5103277;28;19908;-70
2021/12/19 06:26:46;;;;;;;;;;;16.40;59.60;;;;;;5103281;28;19915;-73
2021/12/19 06:29:11;;;;;;;;;;;16.30;59.50;;;;;;5103213;28;20258;-71
2021/12/19 06:31:37;;;;;;;;;;;16.40;59.50;;;;;;5103137;28;19957;-72
2021/12/19 06:34:02;;;;;;;;;;;16.40;59.60;;;;;;5103088;28;20231;-71
2021/12/19 06:36:28;;;;;;;;;;;16.40;59.60;;;;;;5103087;28;19930;-71
2021/12/19 06:38:54;;;;;;;;;;;16.40;59.60;;;;;;5084739;28;19953;-71
2021/12/19 06:41:20;;;;;;;;;;;16.40;59.60;;;;;;5102880;28;19942;-72
2021/12/19 06:43:46;;;;;;;;;;;16.40;59.60;;;;;;5084684;28;20002;-71
2021/12/19 06:46:11;;;;;;;;;;;16.40;59.50;;;;;;5084593;28;19908;-71
2021/12/19 06:48:37;;;;;;;;;;;16.40;59.60;;;;;;5102801;28;19914;-71
2021/12/19 06:51:03;;;;;;;;;;;16.40;59.50;;;;;;5102734;28;19927;-71
2021/12/19 06:53:29;;;;;;;;;;;16.40;59.60;;;;;;5102686;28;19930;-71
2021/12/19 06:55:56;;;;;;;;;;;16.40;59.50;;;;;;5102730;28;20309;-71
2021/12/19 06:58:21;;;;;;;;;;;16.40;59.50;;;;;;5102635;28;19927;-71
2021/12/19 07:00:47;;;;;;;;;;;16.40;59.40;;;;;;5102424;28;20212;-70
2021/12/19 07:03:14;;;;;;;;;;;16.40;59.50;;;;;;5102530;28;20017;-71
2021/12/19 07:05:40;;;;;;;;;;;16.40;59.40;;;;;;5102413;28;20089;-71
2021/12/19 07:08:05;;;;;;;;;;;16.40;59.50;;;;;;5102439;28;19915;-71
2021/12/19 07:10:31;;;;;;;;;;;16.40;59.50;;;;;;5102437;28;19915;-71
2021/12/19 07:12:57;;;;;;;;;;;16.40;59.40;;;;;;5102302;28;19908;-71
2021/12/19 07:15:24;;;;;;;;;;;16.40;59.40;;;;;;5102335;28;19923;-71
2021/12/19 07:17:50;;;;;;;;;;;16.40;59.50;;;;;;5102202;28;19930;-71
2021/12/19 07:20:16;;;;;;;;;;;16.40;59.60;;;;;;5102267;28;19974;-71
2021/12/19 07:22:41;;;;;;;;;;;16.40;59.50;;;;;;5082585;28;19922;-71
2021/12/19 07:25:07;;;;;;;;;;;16.40;59.50;;;;;;5102034;28;19995;-71
2021/12/19 07:27:33;;;;;;;;;;;16.40;59.50;;;;;;5102113;28;19945;-71
2021/12/19 07:29:58;;;;;;;;;;;16.40;59.40;;;;;;5101979;28;20257;-71
2021/12/19 07:32:24;;;;;;;;;;;16.40;59.40;;;;;;5102004;28;20391;-72
2021/12/19 07:34:50;;;;;;;;;;;16.40;59.40;;;;;;5101823;28;19957;-71
2021/12/19 07:37:18;;;;;;;;;;;16.40;59.50;;;;;;5101874;28;19915;-71
2021/12/19 07:39:57;;;;;;;;;;;16.40;59.60;;;;;;5101822;28;19908;-71
2021/12/19 07:42:22;;;;;;;;;;;16.40;59.40;;;;;;5101785;28;19919;-71
2021/12/19 07:44:48;;;;;;;;;;;16.40;59.50;;;;;;5083490;28;19908;-71
2021/12/19 07:47:15;;;;;;;;;;;16.40;59.50;;;;;;5101657;28;19908;-71
2021/12/19 07:49:41;;;;;;;;;;;16.40;59.50;;;;;;5101570;28;19914;-71
2021/12/19 07:52:07;;;;;;;;;;;16.40;59.40;;;;;;5101526;28;20092;-71
2021/12/19 07:54:32;;;;;;;;;;;16.40;59.50;;;;;;5083393;28;19908;-71
2021/12/19 07:56:58;;;;;;;;;;;16.40;59.60;;;;;;5101435;28;19967;-71
2021/12/19 07:59:24;;;;;;;;;;;16.40;59.50;;;;;;5083228;28;19915;-72
2021/12/19 08:01:49;;;;;;;;;;;16.40;59.50;;;;;;5101103;28;19920;-71
2021/12/19 08:04:15;;;;;;;;;;;16.40;59.50;;;;;;5101355;28;19945;-71
2021/12/19 08:06:41;;;;;;;;;;;16.40;59.50;;;;;;5101215;28;20219;-71
2021/12/19 08:09:11;;;;;;;;;;;16.40;59.50;;;;;;5101283;28;20227;-71
2021/12/19 08:11:40;;;;;;;;;;;16.40;59.40;;;;;;5101188;28;19900;-71
2021/12/19 08:14:06;;;;;;;;;;;16.40;59.30;;;;;;5101191;28;19908;-71
2021/12/19 08:16:32;;;;;;;;;;;16.40;59.50;;;;;;5101109;28;19912;-71
2021/12/19 08:18:57;;;;;;;;;;;16.40;59.50;;;;;;5100961;28;20299;-71
2021/12/19 08:21:23;;;;;;;;;;;16.40;59.40;;;;;;5100928;28;19922;-71
2021/12/19 08:23:48;;;;;;;;;;;16.40;59.40;;;;;;5100892;28;19986;-70
2021/12/19 08:26:14;;;;;;;;;;;16.40;59.40;;;;;;5100913;28;19908;-70
2021/12/19 08:28:40;;;;;;;;;;;16.40;59.40;;;;;;5100816;28;19908;-71
2021/12/19 08:31:06;;;;;;;;;;;16.40;59.40;;;;;;5100809;28;20119;-72
2021/12/19 08:33:32;;;;;;;;;;;16.40;59.40;;;;;;5100445;28;19908;-70
2021/12/19 08:35:59;;;;;;;;;;;16.40;59.40;;;;;;5100668;28;20081;-71
2021/12/19 08:38:25;;;;;;;;;;;16.40;59.30;;;;;;5100778;28;19930;-72
2021/12/19 08:40:51;;;;;;;;;;;16.40;59.30;;;;;;5100560;28;19908;-71
2021/12/19 08:43:17;;;;;;;;;;;16.40;59.20;;;;;;5100482;28;20465;-71
2021/12/19 08:45:43;;;;;;;;;;;16.40;59.40;;;;;;5100605;28;20183;-70
2021/12/19 08:48:09;;;;;;;;;;;16.40;59.40;;;;;;5082255;28;19908;-71
2021/12/19 08:50:34;;;;;;;;;;;16.40;59.30;;;;;;5082313;28;19915;-70
2021/12/19 08:53:00;;;;;;;;;;;16.40;59.30;;;;;;5100341;28;19912;-71
2021/12/19 08:55:25;;;;;;;;;;;16.50;59.40;;;;;;5100366;28;19907;-71
2021/12/19 08:57:51;;;;;;;;;;;16.40;59.30;;;;;;5100331;28;19908;-71
2021/12/19 09:00:18;;;;;;;;;;;16.50;59.20;;;;;;5100243;28;19915;-71
2021/12/19 09:02:46;;;;;;;;;;;16.50;59.40;;;;;;5100028;28;19955;-70
2021/12/19 09:05:12;;;;;;;;;;;16.50;59.30;;;;;;5100213;28;19908;-71
2021/12/19 09:07:38;;;;;;;;;;;16.50;59.30;;;;;;5100058;28;20237;-70
2021/12/19 09:10:04;;;;;;;;;;;16.50;59.30;;;;;;5100182;28;19907;-70
2021/12/19 09:12:30;;;;;;;;;;;16.50;59.30;;;;;;5099995;28;19915;-70
2021/12/19 09:14:55;;;;;;;;;;;16.50;59.40;;;;;;5100119;28;19908;-71
2021/12/19 09:17:21;;;;;;;;;;;16.50;59.30;;;;;;5100007;28;19995;-70
2021/12/19 09:19:47;;;;;;;;;;;16.50;60.00;;;;;;5100027;28;19908;-71
2021/12/19 09:22:12;;;;;;;;;;;16.50;59.20;;;;;;5099907;28;20130;-70
2021/12/19 09:24:38;;;;;;;;;;;16.50;59.20;;;;;;5099809;28;19900;-71
2021/12/19 09:27:07;;;;;;;;;;;16.50;59.30;;;;;;5099979;28;20198;-71
2021/12/19 09:29:33;;;;;;;;;;;16.50;59.20;;;;;;5099864;28;19938;-70
2021/12/19 09:31:59;;;;;;;;;;;16.50;59.10;;;;;;5099795;28;19908;-71
2021/12/19 09:34:29;;;;;;;;;;;16.50;59.20;;;;;;5099828;28;20236;-70
2021/12/19 09:36:56;;;;;;;;;;;16.50;59.20;;;;;;5099873;28;20224;-70
2021/12/19 09:39:22;;;;;;;;;;;16.50;59.20;;;;;;5099786;28;19908;-71
2021/12/19 09:41:51;;;;;;;;;;;16.50;59.10;;;;;;5099635;28;19987;-71
2021/12/19 09:44:17;;;;;;;;;;;16.50;59.20;;;;;;5099701;28;19916;-71
2021/12/19 09:46:44;;;;;;;;;;;16.50;59.10;;;;;;5102864;28;19951;-70
2021/12/19 09:49:11;;;;;;;;;;;16.50;59.20;;;;;;5103844;28;19914;-71
2021/12/19 09:51:37;;;;;;;;;;;16.50;59.20;;;;;;5103899;28;20212;-70
2021/12/19 09:54:03;;;;;;;;;;;16.50;59.20;;;;;;5103873;28;19915;-71
2021/12/19 09:56:33;;;;;;;;;;;16.50;59.20;;;;;;5103761;28;19912;-71
2021/12/19 09:58:59;;;;;;;;;;;16.50;59.10;;;;;;5103646;28;19915;-71
2021/12/19 10:01:25;;;;;;;;;;;16.50;59.20;;;;;;5103498;28;19945;-70
2021/12/19 10:03:50;;;;;;;;;;;16.50;59.10;;;;;;5103632;28;19908;-71
2021/12/19 10:06:16;;;;;;;;;;;16.50;59.10;;;;;;5103668;28;19927;-71
2021/12/19 10:08:41;;;;;;;;;;;16.50;59.20;;;;;;5103558;28;19912;-71
2021/12/19 10:11:30;;;;;;;;;;;16.50;59.10;;;;;;5103484;28;19915;-72
2021/12/19 10:13:55;;;;;;;;;;;16.50;59.10;;;;;;5103580;28;19907;-71
2021/12/19 10:16:26;;;;;;;;;;;16.60;59.20;;;;;;5085166;28;19946;-71
2021/12/19 10:18:52;;;;;;;;;;;16.50;59.10;;;;;;5103440;28;19994;-71
2021/12/19 10:21:19;;;;;;;;;;;16.50;59.10;;;;;;5103117;28;20204;-71
2021/12/19 10:23:45;;;;;;;;;;;16.50;59.10;;;;;;5103351;28;19939;-72
2021/12/19 10:26:12;;;;;;;;;;;16.50;59.10;;;;;;5103185;28;20108;-71
2021/12/19 10:28:49;;;;;;;;;;;16.50;59.10;;;;;;5103192;28;19908;-72
2021/12/19 10:31:15;;;;;;;;;;;16.50;59.00;;;;;;5103158;28;20229;-72
2021/12/19 10:33:41;;;;;;;;;;;16.50;59.20;;;;;;5103100;28;19908;-71
2021/12/19 10:36:07;;;;;;;;;;;16.50;59.20;;;;;;5103087;28;19908;-72
2021/12/19 10:38:35;;;;;;;;;;;16.50;59.20;;;;;;5103050;28;19915;-71
2021/12/19 10:41:03;;;;;;;;;;;16.50;59.20;;;;;;5102927;28;19908;-71
2021/12/19 10:43:31;;;;;;;;;;;16.50;59.10;;;;;;5102837;28;20211;-72
2021/12/19 10:45:59;;;;;;;;;;;16.50;59.20;;;;;;5102896;28;19900;-72
2021/12/19 10:48:30;;;;;;;;;;;16.50;59.20;;;;;;5102890;28;19915;-72
2021/12/19 10:50:57;;;;;;;;;;;16.50;59.20;;;;;;5102754;28;19949;-72
2021/12/19 10:53:24;;;;;;;;;;;16.50;59.20;;;;;;5102821;28;19900;-72
2021/12/19 10:55:50;;;;;;;;;;;16.50;59.30;;;;;;5102534;28;19915;-72
2021/12/19 10:58:20;;;;;;;;;;;16.50;59.10;;;;;;5084272;28;20112;-72
2021/12/19 11:00:56;;;;;;;;;;;16.50;59.20;;;;;;5102447;28;19912;-72
2021/12/19 11:03:37;;;;;;;;;;;16.50;59.20;;;;;;5102510;28;19922;-72
2021/12/19 11:06:20;;;;;;;;;;;16.50;59.20;;;;;;5102554;28;19904;-72
2021/12/19 11:08:45;;;;;;;;;;;16.50;59.20;;;;;;5084220;28;19915;-72
2021/12/19 11:11:12;;;;;;;;;;;16.50;59.20;;;;;;5102344;28;19908;-71
2021/12/19 11:13:38;;;;;;;;;;;16.50;59.10;;;;;;5084027;28;20223;-72
2021/12/19 11:16:04;;;;;;;;;;;16.50;59.20;;;;;;5102324;28;19908;-72
2021/12/19 11:18:30;;;;;;;;;;;16.50;59.20;;;;;;5102202;28;19908;-71
2021/12/19 11:20:56;;;;;;;;;;;16.50;59.20;;;;;;5102252;28;19956;-72
2021/12/19 11:23:22;;;;;;;;;;;16.50;59.10;;;;;;5102146;28;19912;-72
2021/12/19 11:25:48;;;;;;;;;;;16.50;59.20;;;;;;5102083;28;20084;-72
2021/12/19 11:28:14;;;;;;;;;;;16.50;59.30;;;;;;5102081;28;20373;-72
2021/12/19 11:30:39;;;;;;;;;;;16.50;59.30;;;;;;5102000;28;19939;-71
2021/12/19 11:33:24;;;;;;;;;;;16.50;59.20;;;;;;5102042;28;20201;-71
2021/12/19 11:35:50;;;;;;;;;;;16.50;59.10;;;;;;5101915;28;19908;-70
2021/12/19 11:38:18;;;;;;;;;;;16.50;59.20;;;;;;5101856;28;19947;-71
2021/12/19 11:40:44;;;;;;;;;;;16.50;59.10;;;;;;5101870;28;19915;-70
2021/12/19 11:43:10;;;;;;;;;;;16.50;59.10;;;;;;5101664;28;19912;-71
2021/12/19 11:45:41;;;;;;;;;;;16.50;59.20;;;;;;5101727;28;20210;-72
2021/12/19 11:48:23;;;;;;;;;;;16.50;59.10;;;;;;5083569;28;19908;-70
2021/12/19 11:50:50;;;;;;;;;;;16.50;59.00;;;;;;5101725;28;19900;-71
2021/12/19 11:53:16;;;;;;;;;;;16.50;59.10;;;;;;5101706;28;20024;-71
2021/12/19 11:55:43;;;;;;;;;;;16.50;59.10;;;;;;5101499;28;20208;-71
2021/12/19 11:58:08;;;;;;;;;;;16.50;59.70;;;;;;5101546;28;19900;-72
2021/12/19 12:00:37;;;;;;;;;;;16.50;59.10;;;;;;5101494;28;19929;-71
2021/12/19 12:03:28;;;;;;;;;;;16.50;59.10;;;;;;5101262;28;19920;-71
2021/12/19 12:05:57;;;;;;;;;;;16.50;59.20;;;;;;5096372;28;19908;-71
2021/12/19 12:08:24;;;;;;;;;;;16.50;59.30;;;;;;5100645;28;19949;-70
2021/12/19 12:10:55;;;;;;;;;;;16.50;59.20;;;;;;5101252;28;19953;-71
2021/12/19 12:13:34;;;;;;;;;;;16.50;59.20;;;;;;5101222;28;19908;-71
2021/12/19 12:16:14;;;;;;;;;;;16.50;59.20;;;;;;5101139;28;19908;-70
2021/12/19 12:18:43;;;;;;;;;;;16.50;59.20;;;;;;5101162;28;19947;-70
2021/12/19 12:21:31;;;;;;;;;;;16.50;59.20;;;;;;5101058;28;19908;-71
2021/12/19 12:23:59;;;;;;;;;;;16.50;59.20;;;;;;5101068;28;19919;-71
2021/12/19 12:26:32;;;;;;;;;;;16.50;59.20;;;;;;5101022;28;19915;-71
2021/12/19 12:28:58;;;;;;;;;;;16.50;59.20;;;;;;5100888;28;19915;-73
2021/12/19 12:31:27;;;;;;;;;;;16.50;59.20;;;;;;5100498;28;20223;-71
2021/12/19 12:33:53;;;;;;;;;;;16.50;59.30;;;;;;5100966;28;19949;-72
2021/12/19 12:36:18;;;;;;;;;;;16.50;59.20;;;;;;5100821;28;19906;-72
2021/12/19 12:38:48;;;;;;;;;;;16.50;59.20;;;;;;5100829;28;19943;-71
2021/12/19 12:44:08;;;;;;;;;;;16.50;59.20;;;;;;5100665;28;19976;-71
2021/12/19 12:46:35;;;;;;;;;;;16.50;59.10;;;;;;5100638;28;19952;-71
2021/12/19 12:49:05;;;;;;;;;;;16.50;59.20;;;;;;5100537;28;19907;-71
2021/12/19 12:51:42;;;;;;;;;;;16.50;59.20;;;;;;5100533;28;19935;-71
2021/12/19 12:54:08;;;;;;;;;;;16.50;59.20;;;;;;5100479;28;19961;-71
2021/12/19 12:56:38;;;;;;;;;;;16.50;59.20;;;;;;5100550;28;19908;-71
2021/12/19 12:59:04;;;;;;;;;;;16.50;59.20;;;;;;5100462;28;19908;-72
2021/12/19 13:01:36;;;;;;;;;;;16.50;59.20;;;;;;5100102;28;19916;-72
2021/12/19 13:04:06;;;;;;;;;;;16.50;59.20;;;;;;5100365;28;19907;-71
2021/12/19 13:06:40;;;;;;;;;;;16.50;59.20;;;;;;5100135;28;20145;-71
2021/12/19 13:09:24;;;;;;;;;;;16.50;59.10;;;;;;5100275;28;20089;-71
2021/12/19 13:11:52;;;;;;;;;;;16.50;59.20;;;;;;5100223;28;19943;-71
2021/12/19 13:14:20;;;;;;;;;;;16.50;59.20;;;;;;5100046;28;19908;-71
2021/12/19 13:16:48;;;;;;;;;;;16.50;59.30;;;;;;5100169;28;19908;-71
2021/12/19 13:19:32;;;;;;;;;;;16.50;59.20;;;;;;5100143;28;19915;-71
2021/12/19 13:21:58;;;;;;;;;;;16.50;59.20;;;;;;5099866;28;19915;-72
2021/12/19 13:24:24;;;;;;;;;;;16.50;59.30;;;;;;5099999;28;19943;-72
2021/12/19 13:27:05;;;;;;;;;;;16.50;59.20;;;;;;5081859;28;19908;-72
2021/12/19 13:29:31;;;;;;;;;;;16.50;59.20;;;;;;5099897;28;20092;-71
2021/12/19 13:32:34;;;;;;;;;;;16.50;59.30;;;;;;5100021;28;20023;-71
2021/12/19 13:35:01;;;;;;;;;;;16.50;59.30;;;;;;4997949;28;19910;-71
2021/12/19 13:37:27;;;;;;;;;;;16.50;59.20;;;;;;4981614;28;19953;-71
2021/12/19 13:40:04;;;;;;;;;;;16.50;59.20;;;;;;5045505;28;19907;-71
2021/12/19 13:42:41;;;;;;;;;;;16.50;59.30;;;;;;5099779;28;19955;-72
2021/12/19 13:45:25;;;;;;;;;;;16.50;59.20;;;;;;5099824;28;19914;-73
2021/12/19 13:47:51;;;;;;;;;;;16.50;59.30;;;;;;5099846;28;20317;-70
2021/12/19 13:50:17;;;;;;;;;;;16.50;59.30;;;;;;5099811;28;19931;-69
2021/12/19 13:52:42;;;;;;;;;;;16.50;59.30;;;;;;5099791;28;19939;-70
2021/12/19 13:55:12;;;;;;;;;;;16.50;59.20;;;;;;5099705;28;20247;-71
2021/12/19 13:57:37;;;;;;;;;;;16.50;59.20;;;;;;5099714;28;19991;-73
2021/12/19 14:00:04;;;;;;;;;;;16.50;59.20;;;;;;5099746;28;19904;-71
2021/12/19 14:02:36;;;;;;;;;;;16.50;59.20;;;;;;5099375;28;19926;-71
2021/12/19 14:05:02;;;;;;;;;;;16.50;59.20;;;;;;5099595;28;19908;-71
2021/12/19 14:07:30;;;;;;;;;;;16.50;59.20;;;;;;5099607;28;20115;-70
2021/12/19 14:09:58;;;;;;;;;;;16.50;59.20;;;;;;5099619;28;19980;-70
2021/12/19 14:12:39;;;;;;;;;;;16.50;59.30;;;;;;5099607;28;19906;-70
2021/12/19 14:15:11;;;;;;;;;;;16.50;59.30;;;;;;5099589;28;20116;-70
2021/12/19 14:17:37;;;;;;;;;;;16.50;59.30;;;;;;5099598;28;19987;-71
2021/12/19 14:20:03;;;;;;;;;;;16.50;59.20;;;;;;5099550;28;19908;-71
2021/12/19 14:22:28;;;;;;;;;;;16.50;59.20;;;;;;5099442;28;19904;-71
2021/12/19 14:24:55;;;;;;;;;;;16.50;59.20;;;;;;5099551;28;20170;-71
2021/12/19 14:27:25;;;;;;;;;;;16.50;59.20;;;;;;5099434;28;19908;-70
2021/12/19 14:30:05;;;;;;;;;;;16.50;59.30;;;;;;5099450;28;19933;-71
2021/12/19 14:32:34;;;;;;;;;;;16.50;59.30;;;;;;5101803;28;19912;-72
2021/12/19 14:35:14;;;;;;;;;;;16.50;59.30;;;;;;5103191;28;19908;-71
2021/12/19 14:37:40;;;;;;;;;;;16.50;59.40;;;;;;5103136;28;19939;-71
2021/12/19 14:40:08;;;;;;;;;;;16.50;59.30;;;;;;5103112;28;19911;-71
2021/12/19 14:42:38;;;;;;;;;;;16.50;59.40;;;;;;5102977;28;19943;-70
2021/12/19 14:45:09;;;;;;;;;;;16.50;59.30;;;;;;5103283;28;20329;-71
2021/12/19 14:47:36;;;;;;;;;;;16.50;59.30;;;;;;5084735;28;19930;-72
2021/12/19 14:50:08;;;;;;;;;;;16.50;59.30;;;;;;5102917;28;20200;-72
2021/12/19 14:52:34;;;;;;;;;;;16.50;59.30;;;;;;5102836;28;19908;-70
2021/12/19 14:55:10;;;;;;;;;;;16.50;59.40;;;;;;5102779;28;19966;-71
2021/12/19 14:57:36;;;;;;;;;;;16.50;59.40;;;;;;5102697;28;19908;-70
2021/12/19 15:00:02;;;;;;;;;;;16.50;59.40;;;;;;5102715;28;20108;-72
2021/12/19 15:02:28;;;;;;;;;;;16.50;59.40;;;;;;5102294;28;19920;-71
2021/12/19 15:04:54;;;;;;;;;;;16.50;59.30;;;;;;5102682;28;20166;-70
2021/12/19 15:07:24;;;;;;;;;;;16.50;59.30;;;;;;5102615;28;19975;-70
2021/12/19 15:09:50;;;;;;;;;;;16.50;59.20;;;;;;5102506;28;19907;-70
2021/12/19 15:12:15;;;;;;;;;;;16.50;59.30;;;;;;5102460;28;20107;-71
2021/12/19 15:14:41;;;;;;;;;;;16.50;59.30;;;;;;5102463;28;19915;-71
2021/12/19 15:17:07;;;;;;;;;;;16.50;59.30;;;;;;5084274;28;19908;-70